createdAt,value
2023-01-18T00:01:01.252Z,72.75
2023-01-18T00:03:28.616Z,73.04
2023-01-18T00:05:55.593Z,72.73
2023-01-18T00:08:22.533Z,72.72
2023-01-18T00:10:49.474Z,72.65
2023-01-18T00:13:16.471Z,72.74
2023-01-18T00:15:43.480Z,73.46
2023-01-18T00:18:10.478Z,72.53
2023-01-18T00:20:37.468Z,72.64
2023-01-18T00:23:04.436Z,73.00
2023-01-18T00:25:31.426Z,73.12
2023-01-18T00:27:58.465Z,72.49
2023-01-18T00:30:29.133Z,72.25
2023-01-18T00:32:59.272Z,72.89
2023-01-18T00:35:26.658Z,72.88
2023-01-18T00:37:54.484Z,73.00
2023-01-18T00:40:22.773Z,72.76
2023-01-18T00:43:08.247Z,72.47
2023-01-18T00:45:35.319Z,72.59
2023-01-18T00:48:03.765Z,72.62
2023-01-18T00:50:30.728Z,72.51
2023-01-18T00:53:00.358Z,73.21
2023-01-18T00:55:27.921Z,73.49
2023-01-18T00:57:54.920Z,73.70
2023-01-18T01:00:23.747Z,73.48
2023-01-18T01:02:51.864Z,73.12
2023-01-18T01:05:41.379Z,73.79
2023-01-18T01:08:08.583Z,73.50
2023-01-18T01:10:35.938Z,73.25
2023-01-18T01:13:21.374Z,72.51
2023-01-18T01:16:07.154Z,73.17
2023-01-18T01:18:52.829Z,74.08
2023-01-18T01:21:38.445Z,74.10
2023-01-18T01:24:24.104Z,74.05
2023-01-18T01:26:51.096Z,73.49
2023-01-18T01:29:18.049Z,73.85
2023-01-18T01:31:44.970Z,73.47
2023-01-18T01:34:11.946Z,73.36
2023-01-18T01:36:38.892Z,74.68
2023-01-18T01:39:07.259Z,74.43
2023-01-18T01:41:35.234Z,74.91
2023-01-18T01:44:25.031Z,74.64
2023-01-18T01:47:16.531Z,74.91
2023-01-18T01:49:48.324Z,74.76
2023-01-18T01:52:25.254Z,75.17
2023-01-18T01:55:06.931Z,74.53
2023-01-18T01:57:43.484Z,74.61
2023-01-18T02:00:20.956Z,74.73
2023-01-18T02:02:53.471Z,74.29
2023-01-18T02:05:20.940Z,73.87
2023-01-18T02:07:49.096Z,73.94
2023-01-18T02:10:16.574Z,74.14
2023-01-18T02:12:46.557Z,74.49
2023-01-18T02:15:13.896Z,74.89
2023-01-18T02:18:30.316Z,74.41
2023-01-18T02:21:11.806Z,74.66
2023-01-18T02:23:50.913Z,74.41
2023-01-18T02:26:36.377Z,74.12
2023-01-18T02:29:19.481Z,74.67
2023-01-18T02:32:08.508Z,74.09
2023-01-18T02:34:55.686Z,73.36
2023-01-18T02:37:47.110Z,73.53
2023-01-18T02:40:19.928Z,73.44
2023-01-18T02:43:07.371Z,73.26
2023-01-18T02:45:57.654Z,73.00
2023-01-18T02:48:30.540Z,73.54
2023-01-18T02:50:57.530Z,73.25
2023-01-18T02:53:24.478Z,73.41
2023-01-18T02:55:56.615Z,73.05
2023-01-18T02:58:30.802Z,73.53
2023-01-18T03:01:05.501Z,73.47
2023-01-18T03:03:32.807Z,72.79
2023-01-18T03:06:02.174Z,72.99
2023-01-18T03:08:37.548Z,72.87
2023-01-18T03:11:24.876Z,72.44
2023-01-18T03:14:09.571Z,72.75
2023-01-18T03:17:03.609Z,72.58
2023-01-18T03:20:03.233Z,73.23
2023-01-18T03:22:57.994Z,72.72
2023-01-18T03:25:36.893Z,71.99
2023-01-18T03:28:25.464Z,72.34
2023-01-18T03:31:15.211Z,72.43
2023-01-18T03:33:48.159Z,72.05
2023-01-18T03:36:19.941Z,71.96
2023-01-18T03:38:52.928Z,71.78
2023-01-18T03:41:22.134Z,71.63
2023-01-18T03:43:52.476Z,71.34
2023-01-18T03:46:22.206Z,71.33
2023-01-18T03:48:49.377Z,71.27
2023-01-18T03:51:23.288Z,71.14
2023-01-18T03:54:15.656Z,70.68
2023-01-18T03:56:57.947Z,70.64
2023-01-18T03:59:30.148Z,71.07
2023-01-18T04:01:57.220Z,70.93
2023-01-18T04:04:24.218Z,70.71
2023-01-18T04:06:51.240Z,70.40
2023-01-18T04:09:18.170Z,70.70
2023-01-18T04:11:45.229Z,70.74
2023-01-18T04:14:12.253Z,70.63
2023-01-18T04:16:39.241Z,70.40
2023-01-18T04:19:08.775Z,70.41
2023-01-18T04:21:35.944Z,70.23
2023-01-18T04:24:02.951Z,69.99
2023-01-18T04:26:30.161Z,70.45
2023-01-18T04:28:57.112Z,70.22
2023-01-18T04:31:24.136Z,70.01
2023-01-18T04:33:51.769Z,70.22
2023-01-18T04:36:20.243Z,70.19
2023-01-18T04:38:47.306Z,69.85
2023-01-18T04:41:14.279Z,69.86
2023-01-18T04:43:41.248Z,69.89
2023-01-18T04:46:08.251Z,70.07
2023-01-18T04:48:35.305Z,70.04
2023-01-18T04:51:02.261Z,70.02
2023-01-18T04:53:29.206Z,69.88
2023-01-18T04:55:56.132Z,69.89
2023-01-18T04:58:23.192Z,70.00
2023-01-18T05:00:50.202Z,69.54
2023-01-18T05:03:17.231Z,69.82
2023-01-18T05:05:44.185Z,69.63
2023-01-18T05:08:11.860Z,69.89
2023-01-18T05:10:38.807Z,69.67
2023-01-18T05:13:05.853Z,69.77
2023-01-18T05:15:34.965Z,69.53
2023-01-18T05:18:02.721Z,69.33
2023-01-18T05:20:29.739Z,69.29
2023-01-18T05:22:56.932Z,69.70
2023-01-18T05:25:24.213Z,69.59
2023-01-18T05:27:51.435Z,69.57
2023-01-18T05:30:18.466Z,69.19
2023-01-18T05:32:45.418Z,69.74
2023-01-18T05:35:12.364Z,69.09
2023-01-18T05:37:39.310Z,69.55
2023-01-18T05:40:06.997Z,69.31
2023-01-18T05:42:33.939Z,69.13
2023-01-18T05:45:00.950Z,68.63
2023-01-18T05:47:28.007Z,68.44
2023-01-18T05:49:57.930Z,69.12
2023-01-18T05:52:24.911Z,68.69
2023-01-18T05:54:51.928Z,69.35
2023-01-18T05:57:18.873Z,68.99
2023-01-18T05:59:45.873Z,69.81
2023-01-18T06:02:12.874Z,69.20
2023-01-18T06:04:39.917Z,69.17
2023-01-18T06:07:06.959Z,69.00
2023-01-18T06:09:33.889Z,69.01
2023-01-18T06:12:00.792Z,68.74
2023-01-18T06:14:27.762Z,69.36
2023-01-18T06:16:54.748Z,69.39
2023-01-18T06:19:21.678Z,69.95
2023-01-18T06:21:48.623Z,69.61
2023-01-18T06:24:15.741Z,69.08
2023-01-18T06:26:42.709Z,69.89
2023-01-18T06:29:09.703Z,69.95
2023-01-18T06:31:36.723Z,69.74
2023-01-18T06:34:09.405Z,69.34
2023-01-18T06:36:37.572Z,69.48
2023-01-18T06:39:05.166Z,69.53
2023-01-18T06:41:32.199Z,69.67
2023-01-18T06:43:59.168Z,69.34
2023-01-18T06:46:26.192Z,69.40
2023-01-18T06:48:53.148Z,69.56
2023-01-18T06:51:20.501Z,69.46
2023-01-18T06:53:48.113Z,69.18
2023-01-18T06:56:15.138Z,69.49
2023-01-18T06:58:42.848Z,69.52
2023-01-18T07:01:09.950Z,69.13
2023-01-18T07:03:37.168Z,69.06
2023-01-18T07:06:05.964Z,69.34
2023-01-18T07:08:33.264Z,69.35
2023-01-18T07:11:06.117Z,69.37
2023-01-18T07:13:33.171Z,69.40
2023-01-18T07:16:02.103Z,69.59
2023-01-18T07:18:30.643Z,68.89
2023-01-18T07:21:07.216Z,68.57
2023-01-18T07:23:36.667Z,68.45
2023-01-18T07:26:05.635Z,69.10
2023-01-18T07:28:33.960Z,69.00
2023-01-18T07:31:01.601Z,68.89
2023-01-18T07:33:29.920Z,68.31
2023-01-18T07:35:58.395Z,68.86
2023-01-18T07:38:26.057Z,68.57
2023-01-18T07:41:05.788Z,68.78
2023-01-18T07:43:33.509Z,68.50
2023-01-18T07:46:01.685Z,68.12
2023-01-18T07:48:28.797Z,68.67
2023-01-18T07:50:57.898Z,68.67
2023-01-18T07:53:26.988Z,68.44
2023-01-18T07:55:55.077Z,68.43
2023-01-18T07:58:22.089Z,68.56
2023-01-18T08:00:49.080Z,68.01
2023-01-18T08:03:18.183Z,67.77
2023-01-18T08:05:47.356Z,67.95
2023-01-18T08:08:16.313Z,68.65
2023-01-18T08:10:43.729Z,68.43
2023-01-18T08:13:11.369Z,68.66
2023-01-18T08:15:39.443Z,68.82
2023-01-18T08:18:08.236Z,68.44
2023-01-18T08:20:35.513Z,67.90
2023-01-18T08:23:03.797Z,68.36
2023-01-18T08:25:33.536Z,67.93
2023-01-18T08:28:02.660Z,67.94
2023-01-18T08:30:33.568Z,67.85
2023-01-18T08:33:01.897Z,68.06
2023-01-18T08:35:32.056Z,67.54
2023-01-18T08:38:00.480Z,67.90
2023-01-18T08:40:28.630Z,68.01
2023-01-18T08:43:00.924Z,67.69
2023-01-18T08:45:29.357Z,67.79
2023-01-18T08:47:58.596Z,68.25
2023-01-18T08:50:25.631Z,68.01
2023-01-18T08:52:53.802Z,68.33
2023-01-18T08:55:22.411Z,67.55
2023-01-18T08:57:50.221Z,67.70
2023-01-18T09:00:17.957Z,68.01
2023-01-18T09:02:45.153Z,67.78
2023-01-18T09:05:12.229Z,67.50
2023-01-18T09:07:39.183Z,67.74
2023-01-18T09:10:09.115Z,68.06
2023-01-18T09:12:36.070Z,67.73
2023-01-18T09:15:03.231Z,67.67
2023-01-18T09:17:31.443Z,67.62
2023-01-18T09:19:59.413Z,68.52
2023-01-18T09:22:26.416Z,67.62
2023-01-18T09:24:53.396Z,68.16
2023-01-18T09:27:20.418Z,67.74
2023-01-18T09:29:52.302Z,68.51
2023-01-18T09:32:20.162Z,68.35
2023-01-18T09:34:50.720Z,68.46
2023-01-18T09:37:19.223Z,68.70
2023-01-18T09:39:51.904Z,68.93
2023-01-18T09:42:25.481Z,69.19
2023-01-18T09:44:56.724Z,68.99
2023-01-18T09:47:39.426Z,68.84
2023-01-18T09:50:17.865Z,69.05
2023-01-18T09:52:47.746Z,68.85
2023-01-18T09:55:33.299Z,68.98
2023-01-18T09:58:20.027Z,69.07
2023-01-18T10:00:49.600Z,68.68
2023-01-18T10:03:22.256Z,68.64
2023-01-18T10:06:09.082Z,68.91
2023-01-18T10:09:07.102Z,68.39
2023-01-18T10:11:47.371Z,69.41
2023-01-18T10:14:38.920Z,69.21
2023-01-18T10:17:14.186Z,69.35
2023-01-18T10:19:41.606Z,69.57
2023-01-18T10:22:19.534Z,69.10
2023-01-18T10:25:16.146Z,68.55
2023-01-18T10:28:25.330Z,68.80
2023-01-18T10:31:44.295Z,69.06
2023-01-18T10:34:18.721Z,68.67
2023-01-18T10:36:54.109Z,69.00
2023-01-18T10:39:36.094Z,69.35
2023-01-18T10:42:10.580Z,68.88
2023-01-18T10:44:37.607Z,68.51
2023-01-18T10:47:04.626Z,69.01
2023-01-18T10:49:42.884Z,68.31
2023-01-18T10:52:29.552Z,69.21
2023-01-18T10:55:01.825Z,68.89
2023-01-18T10:57:48.770Z,68.85
2023-01-18T11:00:21.740Z,68.57
2023-01-18T11:02:53.333Z,68.54
2023-01-18T11:05:38.204Z,68.36
2023-01-18T11:08:22.969Z,68.63
2023-01-18T11:10:59.406Z,68.65
2023-01-18T11:13:42.514Z,69.53
2023-01-18T11:16:23.525Z,69.83
2023-01-18T11:19:00.061Z,69.85
2023-01-18T11:21:41.181Z,69.53
2023-01-18T11:24:22.241Z,69.28
2023-01-18T11:27:06.115Z,69.88
2023-01-18T11:29:39.814Z,69.60
2023-01-18T11:32:24.077Z,71.03
2023-01-18T11:34:56.590Z,70.49
2023-01-18T11:37:36.549Z,70.78
2023-01-18T11:40:28.037Z,70.37
2023-01-18T11:43:03.859Z,70.80
2023-01-18T11:45:40.546Z,70.13
2023-01-18T11:48:17.367Z,69.74
2023-01-18T11:50:53.744Z,70.23
2023-01-18T11:53:43.761Z,69.85
2023-01-18T11:56:20.752Z,70.84
2023-01-18T11:58:49.663Z,70.63
2023-01-18T12:01:25.457Z,70.87
2023-01-18T12:03:56.774Z,70.87
2023-01-18T12:06:46.567Z,71.32
2023-01-18T12:09:59.997Z,70.89
2023-01-18T12:12:42.308Z,70.69
2023-01-18T12:15:29.310Z,70.11
2023-01-18T12:18:13.901Z,70.42
2023-01-18T12:20:59.092Z,70.48
2023-01-18T12:23:53.144Z,70.19
2023-01-18T12:26:20.165Z,69.77
2023-01-18T12:29:27.547Z,70.16
2023-01-18T12:32:13.291Z,70.07
2023-01-18T12:35:22.627Z,69.68
2023-01-18T12:37:53.232Z,70.09
2023-01-18T12:40:39.017Z,69.82
2023-01-18T12:43:15.194Z,69.58
2023-01-18T12:45:51.007Z,69.71
2023-01-18T12:48:36.141Z,69.32
2023-01-18T12:51:17.554Z,69.35
2023-01-18T12:53:50.172Z,69.72
2023-01-18T12:56:40.481Z,69.42
2023-01-18T12:59:28.952Z,69.43
2023-01-18T13:02:11.158Z,68.67
2023-01-18T13:04:53.804Z,69.01
2023-01-18T13:07:29.008Z,69.01
2023-01-18T13:09:57.023Z,68.34
2023-01-18T13:12:25.739Z,68.50
2023-01-18T13:15:17.061Z,68.23
2023-01-18T13:17:56.451Z,67.96
2023-01-18T13:20:37.366Z,67.91
2023-01-18T13:23:31.018Z,67.66
2023-01-18T13:26:20.038Z,67.38
2023-01-18T13:28:47.557Z,67.56
2023-01-18T13:31:14.754Z,67.40
2023-01-18T13:33:45.762Z,67.32
2023-01-18T13:36:17.400Z,67.11
2023-01-18T13:39:10.681Z,66.76
2023-01-18T13:41:37.632Z,66.78
2023-01-18T13:44:25.553Z,66.91
2023-01-18T13:46:57.178Z,67.00
2023-01-18T13:49:37.939Z,67.03
2023-01-18T13:52:35.687Z,66.60
2023-01-18T13:55:23.209Z,66.52
2023-01-18T13:57:55.541Z,66.43
2023-01-18T14:00:24.839Z,66.52
2023-01-18T14:02:56.876Z,66.41
2023-01-18T14:05:27.928Z,66.31
2023-01-18T14:08:01.060Z,66.25
2023-01-18T14:10:46.808Z,66.20
2023-01-18T14:13:18.347Z,65.85
2023-01-18T14:15:54.928Z,65.62
2023-01-18T14:18:25.442Z,66.04
2023-01-18T14:21:11.081Z,66.27
2023-01-18T14:23:40.982Z,65.94
2023-01-18T14:26:15.343Z,65.09
2023-01-18T14:28:54.535Z,65.53
2023-01-18T14:31:29.218Z,65.22
2023-01-18T14:33:56.448Z,65.48
2023-01-18T14:36:26.615Z,65.42
2023-01-18T14:39:13.834Z,65.18
2023-01-18T14:41:44.149Z,65.41
2023-01-18T14:44:20.747Z,65.20
2023-01-18T14:46:56.238Z,65.40
2023-01-18T14:49:31.292Z,65.01
2023-01-18T14:51:59.555Z,64.83
2023-01-18T14:54:26.748Z,64.64
2023-01-18T14:57:05.722Z,64.74
2023-01-18T14:59:33.937Z,63.94
2023-01-18T15:02:16.049Z,64.45
2023-01-18T15:04:47.479Z,64.30
2023-01-18T15:07:33.966Z,63.77
2023-01-18T15:10:01.042Z,63.81
2023-01-18T15:12:31.788Z,63.73
2023-01-18T15:15:17.192Z,63.23
2023-01-18T15:17:44.256Z,63.41
2023-01-18T15:20:15.016Z,63.26
2023-01-18T15:22:43.133Z,62.85
2023-01-18T15:25:26.354Z,62.70
2023-01-18T15:27:54.424Z,63.50
2023-01-18T15:30:24.740Z,63.41
2023-01-18T15:32:57.936Z,63.63
2023-01-18T15:35:25.873Z,63.29
2023-01-18T15:37:53.010Z,63.08
2023-01-18T15:40:19.984Z,63.15
2023-01-18T15:42:54.127Z,62.97
2023-01-18T15:45:24.409Z,62.95
2023-01-18T15:47:57.422Z,62.62
2023-01-18T15:50:31.093Z,62.48
2023-01-18T15:53:06.959Z,62.44
2023-01-18T15:55:38.703Z,62.33
2023-01-18T15:58:14.608Z,62.21
2023-01-18T16:00:53.945Z,62.50
2023-01-18T16:03:36.631Z,62.18
2023-01-18T16:06:15.265Z,61.93
2023-01-18T16:09:12.436Z,61.62
2023-01-18T16:11:53.223Z,62.05
2023-01-18T16:14:29.287Z,61.28
2023-01-18T16:17:04.855Z,61.84
2023-01-18T16:19:35.206Z,61.79
2023-01-18T16:22:05.022Z,62.09
2023-01-18T16:24:46.937Z,62.09
2023-01-18T16:27:19.094Z,62.46
2023-01-18T16:29:59.746Z,62.35
2023-01-18T16:32:29.781Z,62.46
2023-01-18T16:35:00.422Z,62.98
2023-01-18T16:37:27.906Z,63.19
2023-01-18T16:39:55.473Z,62.81
2023-01-18T16:42:29.612Z,62.69
2023-01-18T16:45:00.365Z,62.98
2023-01-18T16:47:27.349Z,63.88
2023-01-18T16:49:54.304Z,64.26
2023-01-18T16:52:21.680Z,64.09
2023-01-18T16:54:48.683Z,63.97
2023-01-18T16:57:22.042Z,64.76
2023-01-18T16:59:50.153Z,63.70
2023-01-18T17:02:17.291Z,64.08
2023-01-18T17:04:45.555Z,63.81
2023-01-18T17:07:12.940Z,64.29
2023-01-18T17:09:48.405Z,63.85
2023-01-18T17:12:16.334Z,64.59
2023-01-18T17:14:43.293Z,66.03
2023-01-18T17:17:10.982Z,65.80
2023-01-18T17:19:38.290Z,65.83
2023-01-18T17:22:06.576Z,65.14
2023-01-18T17:24:34.044Z,66.55
2023-01-18T17:27:01.451Z,66.39
2023-01-18T17:29:28.878Z,65.79
2023-01-18T17:31:55.888Z,65.82
2023-01-18T17:34:28.448Z,66.49
2023-01-18T17:36:59.763Z,66.23
2023-01-18T17:39:42.647Z,66.00
2023-01-18T17:42:22.395Z,66.63
2023-01-18T17:45:02.550Z,66.05
2023-01-18T17:47:35.203Z,67.17
2023-01-18T17:50:08.893Z,67.68
2023-01-18T17:52:37.283Z,67.32
2023-01-18T17:55:05.231Z,67.93
2023-01-18T17:57:32.413Z,69.01
2023-01-18T17:59:59.447Z,69.69
2023-01-18T18:02:26.662Z,68.82
2023-01-18T18:04:53.686Z,69.59
2023-01-18T18:07:20.790Z,69.38
2023-01-18T18:09:47.753Z,69.01
2023-01-18T18:12:14.753Z,68.85
2023-01-18T18:14:41.746Z,68.62
2023-01-18T18:17:09.675Z,69.32
2023-01-18T18:19:36.661Z,70.13
2023-01-18T18:22:03.712Z,69.63
2023-01-18T18:24:30.752Z,68.68
2023-01-18T18:26:58.210Z,68.94
2023-01-18T18:29:25.222Z,70.24
2023-01-18T18:31:52.811Z,70.32
2023-01-18T18:34:19.901Z,70.14
2023-01-18T18:36:46.927Z,70.67
2023-01-18T18:39:13.980Z,70.23
2023-01-18T18:41:43.269Z,70.76
2023-01-18T18:44:10.873Z,70.92
2023-01-18T18:46:39.038Z,70.24
2023-01-18T18:49:07.018Z,70.81
2023-01-18T18:51:37.090Z,71.30
2023-01-18T18:54:05.138Z,70.78
2023-01-18T18:56:32.520Z,70.59
2023-01-18T18:58:59.503Z,71.16
2023-01-18T19:01:29.564Z,70.62
2023-01-18T19:03:57.771Z,70.71
2023-01-18T19:06:25.845Z,71.34
2023-01-18T19:08:53.453Z,71.56
2023-01-18T19:11:20.946Z,71.82
2023-01-18T19:13:49.326Z,72.20
2023-01-18T19:16:17.390Z,71.70
2023-01-18T19:18:44.430Z,71.37
2023-01-18T19:21:11.400Z,71.77
2023-01-18T19:23:38.501Z,71.53
2023-01-18T19:26:05.696Z,72.21
2023-01-18T19:28:32.834Z,73.80
2023-01-18T19:31:07.628Z,74.10
2023-01-18T19:33:34.814Z,72.92
2023-01-18T19:36:14.065Z,72.87
2023-01-18T19:38:46.527Z,72.49
2023-01-18T19:41:15.184Z,72.67
2023-01-18T19:43:43.034Z,72.23
2023-01-18T19:46:12.636Z,73.14
2023-01-18T19:48:40.408Z,72.58
2023-01-18T19:51:20.760Z,72.75
2023-01-18T19:53:49.058Z,73.43
2023-01-18T19:56:16.112Z,73.03
2023-01-18T19:58:43.079Z,72.73
2023-01-18T20:01:14.832Z,73.24
2023-01-18T20:03:48.132Z,73.06
2023-01-18T20:06:18.035Z,72.85
2023-01-18T20:08:45.601Z,72.49
2023-01-18T20:11:14.826Z,72.69
2023-01-18T20:13:47.269Z,73.66
2023-01-18T20:16:15.621Z,73.48
2023-01-18T20:18:42.754Z,73.04
2023-01-18T20:21:14.208Z,73.26
2023-01-18T20:23:43.830Z,73.73
2023-01-18T20:26:19.970Z,73.95
2023-01-18T20:28:56.062Z,73.97
2023-01-18T20:31:23.381Z,73.53
2023-01-18T20:33:50.949Z,73.21
2023-01-18T20:36:18.349Z,75.17
2023-01-18T20:38:45.280Z,74.36
2023-01-18T20:41:12.387Z,74.51
2023-01-18T20:43:40.336Z,74.39
2023-01-18T20:46:10.417Z,73.61
2023-01-18T20:48:38.896Z,73.21
2023-01-18T20:51:07.660Z,73.05
2023-01-18T20:53:34.818Z,73.67
2023-01-18T20:56:11.765Z,74.11
2023-01-18T20:58:41.400Z,73.56
2023-01-18T21:01:15.786Z,73.61
2023-01-18T21:03:51.703Z,75.20
2023-01-18T21:06:18.888Z,74.85
2023-01-18T21:08:45.900Z,74.08
2023-01-18T21:11:17.694Z,75.06
2023-01-18T21:13:44.664Z,74.32
2023-01-18T21:16:11.694Z,74.72
2023-01-18T21:18:39.515Z,76.06
2023-01-18T21:21:09.712Z,75.52
2023-01-18T21:23:39.654Z,75.31
2023-01-18T21:26:09.569Z,74.84
2023-01-18T21:28:36.948Z,74.65
2023-01-18T21:31:05.202Z,76.60
2023-01-18T21:33:32.629Z,76.13
2023-01-18T21:36:13.046Z,76.25
2023-01-18T21:38:40.143Z,75.45
2023-01-18T21:41:26.029Z,75.16
2023-01-18T21:44:12.708Z,76.03
2023-01-18T21:46:48.568Z,75.51
2023-01-18T21:49:51.978Z,75.40
2023-01-18T21:52:40.139Z,77.06
2023-01-18T21:55:07.562Z,76.20
2023-01-18T21:57:36.410Z,77.78
2023-01-18T22:00:05.027Z,76.40
2023-01-18T22:02:36.004Z,76.82
2023-01-18T22:05:04.158Z,76.26
2023-01-18T22:07:34.254Z,75.85
2023-01-18T22:10:06.599Z,76.54
2023-01-18T22:12:36.163Z,75.85
2023-01-18T22:15:05.012Z,76.17
2023-01-18T22:17:32.233Z,75.96
2023-01-18T22:19:59.928Z,76.48
2023-01-18T22:22:27.047Z,75.75
2023-01-18T22:24:54.246Z,76.61
2023-01-18T22:27:21.174Z,76.74
2023-01-18T22:29:48.237Z,76.54
2023-01-18T22:32:15.314Z,76.68
2023-01-18T22:34:42.271Z,75.99
2023-01-18T22:37:09.220Z,75.78
2023-01-18T22:39:36.183Z,76.09
2023-01-18T22:42:03.230Z,76.85
2023-01-18T22:44:30.407Z,76.23
2023-01-18T22:46:57.354Z,75.96
2023-01-18T22:49:24.376Z,75.93
2023-01-18T22:51:51.319Z,75.35
2023-01-18T22:54:22.625Z,75.65
2023-01-18T22:56:49.819Z,75.50
2023-01-18T22:59:16.910Z,76.18
2023-01-18T23:01:43.910Z,75.54
2023-01-18T23:04:11.395Z,76.19
2023-01-18T23:06:48.961Z,76.31
2023-01-18T23:09:17.617Z,76.71
2023-01-18T23:11:45.135Z,76.26
2023-01-18T23:14:30.951Z,76.14
2023-01-18T23:17:16.509Z,76.75
2023-01-18T23:19:43.567Z,76.16
2023-01-18T23:22:11.310Z,76.29
2023-01-18T23:24:39.288Z,76.60
2023-01-18T23:27:08.221Z,76.60
2023-01-18T23:29:35.241Z,77.61
2023-01-18T23:32:02.272Z,77.46
2023-01-18T23:34:29.425Z,77.17
2023-01-18T23:36:56.403Z,76.91
2023-01-18T23:39:42.041Z,76.85
2023-01-18T23:42:27.753Z,76.84
2023-01-18T23:45:13.585Z,76.51
2023-01-18T23:47:59.532Z,76.67
2023-01-18T23:50:45.490Z,76.02
2023-01-18T23:53:32.046Z,76.91
2023-01-18T23:56:00.082Z,77.51
2023-01-18T23:58:27.785Z,78.45
